This is the latest recevied weather packets stored in our database for station/object EA3AGY-13. If no packets are shown the sender has not sent any weather packets the latest 10 day(s).
| Time | Temp. | Humidity | Pressure | Rain* | Wind** | Luminosity | Snow |
|---|---|---|---|---|---|---|---|
| 1777719316 | 10.56° C | 38% | 1020.8 hPa | 0 mm | - | - | - |
| 1777718112 | 11.11° C | 39% | 1020.9 hPa | 0 mm | - | - | - |
| 1777716304 | 10.56° C | 39% | 1021 hPa | 0 mm | - | - | - |
| 1777715703 | 10.56° C | 39% | 1021 hPa | 0 mm | - | - | - |
| 1777714497 | 9.44° C | 38% | 1021.1 hPa | 0 mm | - | - | - |
| 1777712088 | 9.44° C | 36% | 1021.1 hPa | 0 mm | - | - | - |
| 1777711485 | 10° C | 36% | 1021 hPa | 0 mm | - | - | - |
| 1777710883 | 10.56° C | 35% | 1021.1 hPa | 0 mm | - | - | - |
| 1777709680 | 10° C | 35% | 1021 hPa | 0 mm | - | - | - |
| 1777708474 | 10° C | 35% | 1020.9 hPa | 0 mm | - | - | - |
| 1777704258 | 9.44° C | 35% | 1020.9 hPa | 0 mm | - | - | - |
| 1777703656 | 9.44° C | 36% | 1020.9 hPa | 0 mm | - | - | - |
| 1777703054 | 9.44° C | 36% | 1020.8 hPa | 0 mm | - | - | - |
| 1777702450 | 9.44° C | 37% | 1020.9 hPa | 0 mm | - | - | - |
| 1777701849 | 9.44° C | 37% | 1020.9 hPa | 0 mm | - | - | - |
| 1777701247 | 10° C | 36% | 1020.8 hPa | 0 mm | - | - | - |
| 1777700643 | 9.44° C | 36% | 1020.9 hPa | 0 mm | - | - | - |
| 1777698837 | 8.89° C | 37% | 1020.9 hPa | 0 mm | - | - | - |
| 1777697025 | 8.89° C | 35% | 1020.7 hPa | 0 mm | - | - | - |
| 1777695217 | 9.44° C | 34% | 1020.7 hPa | 0 mm | - | - | - |
| 1777683773 | 7.22° C | 37% | 1021.7 hPa | 0 mm | - | - | - |
| 1777681965 | 7.22° C | 34% | 1021.8 hPa | 0 mm | - | - | - |
| 1777681365 | 6.67° C | 36% | 1021.9 hPa | 0 mm | - | - | - |
| 1777680761 | 6.67° C | 38% | 1021.9 hPa | 0 mm | - | - | - |
| 1777677746 | 6.67° C | 35% | 1021.9 hPa | 0 mm | - | - | - |
* Rain since midnight (hover to see other rain measurements)
** Current wind speed in m/s (hover to see current wind gust speed)